Time;durP1;ratioP1;P1;durP2;ratioP2;P2;SDS_P1;SDS_P2;PMS_P1;PMS_P2;Temp;Humidity;BMP_temperature;BMP_pressure;BME280_temperature;BME280_humidity;BME280_pressure;Samples;Min_cycle;Max_cycle;Signal;HPM_P1;HPM_P2
2023/05/16 00:02:17;;;;;;;;;;;13.60;99.90;;;;;;5012365;28;20590;-77
2023/05/16 00:04:44;;;;;;;;;;;13.50;99.90;;;;;;5010846;28;20314;-76
2023/05/16 00:07:11;;;;;;;;;;;13.50;99.90;;;;;;5005701;28;19995;-77
2023/05/16 00:09:42;;;;;;;;;;;13.50;99.90;;;;;;5011484;28;19920;-77
2023/05/16 00:12:09;;;;;;;;;;;13.50;99.90;;;;;;5012263;28;19920;-76
2023/05/16 00:14:36;;;;;;;;;;;13.50;99.90;;;;;;5002326;28;19906;-76
2023/05/16 00:17:10;;;;;;;;;;;13.50;99.90;;;;;;5035284;28;19905;-77
2023/05/16 00:19:46;;;;;;;;;;;13.50;99.90;;;;;;5033397;28;20024;-77
2023/05/16 00:22:12;;;;;;;;;;;13.50;99.90;;;;;;5016030;28;20558;-77
2023/05/16 00:24:46;;;;;;;;;;;13.50;99.90;;;;;;5011831;28;19943;-77
2023/05/16 00:27:11;;;;;;;;;;;13.50;99.90;;;;;;5015746;28;19941;-76
2023/05/16 00:29:39;;;;;;;;;;;13.50;99.90;;;;;;5018900;28;20495;-77
2023/05/16 00:32:07;;;;;;;;;;;13.50;99.90;;;;;;5015122;28;19940;-77
2023/05/16 00:34:36;;;;;;;;;;;13.60;99.90;;;;;;5016314;28;19906;-76
2023/05/16 00:37:02;;;;;;;;;;;13.60;99.90;;;;;;5019260;28;20004;-76
2023/05/16 00:39:34;;;;;;;;;;;13.50;99.90;;;;;;5015939;28;20040;-76
2023/05/16 00:42:02;;;;;;;;;;;13.50;99.90;;;;;;5015133;28;19920;-77
2023/05/16 00:44:28;;;;;;;;;;;13.50;99.90;;;;;;5019398;28;20366;-76
2023/05/16 00:46:59;;;;;;;;;;;13.50;99.90;;;;;;5015005;28;19909;-77
2023/05/16 00:49:25;;;;;;;;;;;13.50;99.90;;;;;;5020154;28;19915;-76
2023/05/16 00:51:57;;;;;;;;;;;13.50;99.90;;;;;;5009031;28;20024;-77
2023/05/16 00:54:25;;;;;;;;;;;13.40;99.90;;;;;;5015490;28;19905;-76
2023/05/16 00:56:51;;;;;;;;;;;13.50;99.90;;;;;;5025457;28;19983;-76
2023/05/16 00:59:17;;;;;;;;;;;13.50;99.90;;;;;;5014071;28;19905;-76
2023/05/16 01:01:45;;;;;;;;;;;13.40;99.90;;;;;;5014827;28;19916;-77
2023/05/16 01:04:14;;;;;;;;;;;13.50;99.90;;;;;;5014431;28;19902;-76
2023/05/16 01:06:41;;;;;;;;;;;13.40;99.90;;;;;;5013288;28;19909;-77
2023/05/16 01:09:08;;;;;;;;;;;13.50;99.90;;;;;;5013790;28;19908;-76
2023/05/16 01:11:37;;;;;;;;;;;13.50;99.90;;;;;;5012811;28;19913;-76
2023/05/16 01:14:23;;;;;;;;;;;13.50;99.90;;;;;;5013059;28;20343;-77
2023/05/16 01:17:11;;;;;;;;;;;13.50;99.90;;;;;;5006192;28;19909;-77
2023/05/16 01:19:39;;;;;;;;;;;13.50;99.90;;;;;;5015030;28;20345;-76
2023/05/16 01:22:15;;;;;;;;;;;13.50;99.90;;;;;;5015362;28;19928;-76
2023/05/16 01:25:01;;;;;;;;;;;13.50;99.90;;;;;;5010619;28;19905;-76
2023/05/16 01:27:28;;;;;;;;;;;13.40;99.90;;;;;;5017783;28;19999;-76
2023/05/16 01:29:55;;;;;;;;;;;13.40;99.90;;;;;;5013393;28;19952;-76
2023/05/16 01:32:21;;;;;;;;;;;13.40;99.90;;;;;;5010229;28;19913;-77
2023/05/16 01:34:51;;;;;;;;;;;13.40;99.90;;;;;;5012920;28;20019;-77
2023/05/16 01:37:34;;;;;;;;;;;13.40;99.90;;;;;;5023179;28;19913;-77
2023/05/16 01:40:07;;;;;;;;;;;13.40;99.90;;;;;;5015824;28;19920;-76
2023/05/16 01:42:35;;;;;;;;;;;13.30;99.90;;;;;;5014610;28;19984;-76
2023/05/16 01:45:15;;;;;;;;;;;13.30;99.90;;;;;;5024895;28;20382;-76
2023/05/16 01:47:44;;;;;;;;;;;13.30;99.90;;;;;;5012372;28;19912;-76
2023/05/16 01:50:13;;;;;;;;;;;13.30;99.90;;;;;;5009590;28;20070;-77
2023/05/16 01:52:38;;;;;;;;;;;13.30;99.90;;;;;;5011035;28;19920;-76
2023/05/16 01:55:07;;;;;;;;;;;13.30;99.90;;;;;;5015455;28;19905;-76
2023/05/16 01:57:33;;;;;;;;;;;13.30;99.90;;;;;;5009930;28;19916;-76
2023/05/16 01:59:59;;;;;;;;;;;13.30;99.90;;;;;;5015549;28;19909;-76
2023/05/16 02:02:26;;;;;;;;;;;13.30;99.90;;;;;;5015164;28;19905;-76
2023/05/16 02:04:53;;;;;;;;;;;13.30;99.90;;;;;;5013924;28;19905;-76
2023/05/16 02:07:24;;;;;;;;;;;13.30;99.90;;;;;;5016754;28;20019;-76
2023/05/16 02:09:51;;;;;;;;;;;13.30;99.90;;;;;;5011461;28;19916;-76
2023/05/16 02:12:23;;;;;;;;;;;13.30;99.90;;;;;;5018583;28;20003;-77
2023/05/16 02:14:49;;;;;;;;;;;13.30;99.90;;;;;;5016982;28;20281;-76
2023/05/16 02:17:34;;;;;;;;;;;13.40;99.90;;;;;;5017611;28;20410;-76
2023/05/16 02:20:05;;;;;;;;;;;13.40;99.90;;;;;;5016177;28;19913;-76
2023/05/16 02:22:32;;;;;;;;;;;13.30;99.90;;;;;;5010812;28;19917;-76
2023/05/16 02:25:02;;;;;;;;;;;13.40;99.90;;;;;;5014101;28;19955;-76
2023/05/16 02:27:28;;;;;;;;;;;13.40;99.90;;;;;;5018824;28;19913;-76
2023/05/16 02:29:54;;;;;;;;;;;13.40;99.90;;;;;;5016733;28;19931;-77
2023/05/16 02:32:37;;;;;;;;;;;13.40;99.90;;;;;;5016946;28;19914;-76
2023/05/16 02:35:04;;;;;;;;;;;13.40;99.90;;;;;;5013430;28;19955;-76
2023/05/16 02:37:30;;;;;;;;;;;13.40;99.90;;;;;;5017050;28;19914;-76
2023/05/16 02:39:57;;;;;;;;;;;13.40;99.90;;;;;;5017342;28;19905;-77
2023/05/16 02:42:26;;;;;;;;;;;13.40;99.90;;;;;;5014182;28;19962;-77
2023/05/16 02:44:53;;;;;;;;;;;13.50;99.90;;;;;;5019604;28;20354;-77
2023/05/16 02:47:21;;;;;;;;;;;13.40;99.90;;;;;;5010434;28;19934;-76
2023/05/16 02:49:46;;;;;;;;;;;13.40;99.90;;;;;;5017008;28;19912;-76
2023/05/16 02:52:18;;;;;;;;;;;13.40;99.90;;;;;;5018362;28;20016;-77
2023/05/16 02:54:43;;;;;;;;;;;13.40;99.90;;;;;;5011816;28;19905;-76
2023/05/16 02:57:11;;;;;;;;;;;13.40;99.90;;;;;;5016106;28;19905;-77
2023/05/16 02:59:37;;;;;;;;;;;13.40;99.90;;;;;;5017918;28;19959;-77
2023/05/16 03:02:03;;;;;;;;;;;13.40;99.90;;;;;;5019253;28;19905;-76
2023/05/16 03:04:32;;;;;;;;;;;13.30;99.90;;;;;;5018338;28;19913;-77
2023/05/16 03:07:03;;;;;;;;;;;13.30;99.90;;;;;;5013438;28;19949;-76
2023/05/16 03:09:30;;;;;;;;;;;13.30;99.90;;;;;;5015428;28;19917;-76
2023/05/16 03:11:58;;;;;;;;;;;13.30;99.90;;;;;;5018850;28;19909;-77
2023/05/16 03:14:24;;;;;;;;;;;13.30;99.90;;;;;;5016069;28;20000;-76
2023/05/16 03:16:51;;;;;;;;;;;13.30;99.90;;;;;;5017891;28;19905;-76
2023/05/16 03:19:20;;;;;;;;;;;13.30;99.90;;;;;;5008720;28;20012;-76
2023/05/16 03:21:45;;;;;;;;;;;13.30;99.90;;;;;;5022250;28;19914;-75
2023/05/16 03:24:12;;;;;;;;;;;13.30;99.90;;;;;;5017059;28;19950;-76
2023/05/16 03:26:40;;;;;;;;;;;13.30;99.90;;;;;;5015339;28;19962;-76
2023/05/16 03:29:19;;;;;;;;;;;13.30;99.90;;;;;;5026087;28;19905;-76
2023/05/16 03:31:45;;;;;;;;;;;13.30;99.90;;;;;;5008849;28;20715;-77
2023/05/16 03:34:12;;;;;;;;;;;13.30;99.90;;;;;;5024856;28;19905;-76
2023/05/16 03:36:43;;;;;;;;;;;13.30;99.90;;;;;;5017174;28;19905;-76
2023/05/16 03:39:11;;;;;;;;;;;13.40;99.90;;;;;;5021700;28;19912;-76
2023/05/16 03:41:43;;;;;;;;;;;13.40;99.90;;;;;;5016183;28;19916;-77
2023/05/16 03:44:08;;;;;;;;;;;13.50;99.90;;;;;;5017828;28;19908;-75
2023/05/16 03:46:37;;;;;;;;;;;13.50;99.90;;;;;;5017740;28;19905;-76
2023/05/16 03:49:03;;;;;;;;;;;13.50;99.90;;;;;;5013329;28;20351;-77
2023/05/16 03:51:30;;;;;;;;;;;13.50;99.90;;;;;;5016201;28;19922;-77
2023/05/16 03:53:56;;;;;;;;;;;13.60;99.90;;;;;;5019762;28;19955;-76
2023/05/16 03:56:22;;;;;;;;;;;13.60;99.90;;;;;;5017518;28;20403;-77
2023/05/16 03:58:47;;;;;;;;;;;13.70;99.90;;;;;;5026285;28;19909;-76
2023/05/16 04:01:19;;;;;;;;;;;13.70;99.90;;;;;;5010788;28;20710;-76
2023/05/16 04:03:49;;;;;;;;;;;13.70;99.90;;;;;;5020881;28;20326;-77
2023/05/16 04:06:15;;;;;;;;;;;13.80;99.90;;;;;;5022402;28;21183;-76
2023/05/16 04:08:43;;;;;;;;;;;13.80;99.90;;;;;;5015729;28;20449;-76
2023/05/16 04:11:10;;;;;;;;;;;13.80;99.90;;;;;;5011379;28;20322;-76
2023/05/16 04:13:36;;;;;;;;;;;13.80;99.90;;;;;;5014039;28;19915;-76
2023/05/16 04:16:03;;;;;;;;;;;13.80;99.90;;;;;;5014529;28;20265;-76
2023/05/16 04:18:29;;;;;;;;;;;13.90;99.90;;;;;;5016266;28;20005;-76
2023/05/16 04:20:56;;;;;;;;;;;13.90;99.90;;;;;;5011898;28;20003;-76
2023/05/16 04:23:22;;;;;;;;;;;14.00;99.90;;;;;;5016874;28;19909;-77
2023/05/16 04:25:54;;;;;;;;;;;14.00;99.90;;;;;;5017383;28;19905;-77
2023/05/16 04:28:27;;;;;;;;;;;14.10;99.90;;;;;;5016405;28;19944;-77
2023/05/16 04:30:53;;;;;;;;;;;14.10;99.90;;;;;;5013175;28;19908;-77
2023/05/16 04:33:19;;;;;;;;;;;14.20;99.90;;;;;;5013584;28;19909;-78
2023/05/16 04:35:48;;;;;;;;;;;14.20;99.90;;;;;;5004426;28;20909;-77
2023/05/16 04:38:17;;;;;;;;;;;14.20;99.90;;;;;;5023882;28;20059;-77
2023/05/16 04:40:42;;;;;;;;;;;14.30;99.90;;;;;;5015039;28;19905;-77
2023/05/16 04:43:13;;;;;;;;;;;14.30;99.90;;;;;;5005642;28;19905;-77
2023/05/16 04:45:41;;;;;;;;;;;14.30;99.90;;;;;;5012856;28;19960;-77
2023/05/16 04:48:14;;;;;;;;;;;14.40;99.90;;;;;;5010773;28;19944;-77
2023/05/16 04:50:43;;;;;;;;;;;14.50;99.90;;;;;;5011295;28;19923;-76
2023/05/16 04:53:09;;;;;;;;;;;14.60;99.90;;;;;;5009953;28;19909;-76
2023/05/16 04:55:36;;;;;;;;;;;14.60;99.90;;;;;;5015539;28;19905;-77
2023/05/16 04:58:01;;;;;;;;;;;14.70;99.90;;;;;;5011492;28;20705;-77
2023/05/16 05:00:33;;;;;;;;;;;14.70;99.90;;;;;;5014328;28;19991;-77
2023/05/16 05:03:00;;;;;;;;;;;14.70;99.90;;;;;;5012727;28;20806;-77
2023/05/16 05:05:26;;;;;;;;;;;14.70;99.90;;;;;;5014081;28;20425;-77
2023/05/16 05:07:54;;;;;;;;;;;14.70;99.90;;;;;;5014520;28;19929;-76
2023/05/16 05:10:20;;;;;;;;;;;14.70;99.90;;;;;;5010053;28;19996;-77
2023/05/16 05:12:45;;;;;;;;;;;14.70;99.90;;;;;;5014997;28;20619;-77
2023/05/16 05:15:13;;;;;;;;;;;14.80;99.90;;;;;;5011832;28;19913;-77
2023/05/16 05:17:38;;;;;;;;;;;14.80;99.90;;;;;;5009558;28;19912;-77
2023/05/16 05:20:09;;;;;;;;;;;14.90;99.90;;;;;;5010563;28;19913;-77
2023/05/16 05:22:36;;;;;;;;;;;15.00;99.90;;;;;;5012303;28;19912;-77
2023/05/16 05:25:02;;;;;;;;;;;15.10;99.90;;;;;;5012511;28;19944;-77
2023/05/16 05:27:30;;;;;;;;;;;15.30;99.90;;;;;;5011811;28;19941;-76
2023/05/16 05:29:57;;;;;;;;;;;15.40;99.90;;;;;;5017939;28;19905;-83
2023/05/16 05:32:23;;;;;;;;;;;15.60;99.90;;;;;;5011641;28;19921;-82
2023/05/16 05:34:53;;;;;;;;;;;15.90;99.90;;;;;;5019852;28;19909;-83
2023/05/16 05:37:19;;;;;;;;;;;16.10;99.90;;;;;;5021011;28;19955;-85
2023/05/16 05:39:45;;;;;;;;;;;16.40;99.90;;;;;;5019158;28;19914;-75
2023/05/16 05:42:11;;;;;;;;;;;16.50;99.90;;;;;;5027428;28;19909;-75
2023/05/16 05:44:37;;;;;;;;;;;16.50;99.90;;;;;;5005386;28;19905;-76
2023/05/16 05:47:04;;;;;;;;;;;16.40;99.90;;;;;;5014069;28;19909;-75
2023/05/16 05:49:32;;;;;;;;;;;16.50;99.90;;;;;;5009053;28;20165;-75
2023/05/16 05:52:01;;;;;;;;;;;16.30;99.90;;;;;;5015796;28;20747;-75
2023/05/16 05:54:34;;;;;;;;;;;16.20;99.90;;;;;;5012301;28;19912;-77
2023/05/16 05:57:00;;;;;;;;;;;16.20;99.90;;;;;;5016975;28;19912;-74
2023/05/16 05:59:27;;;;;;;;;;;16.20;99.90;;;;;;5019547;28;19905;-75
2023/05/16 06:01:54;;;;;;;;;;;16.30;99.90;;;;;;5015430;28;19905;-75
2023/05/16 06:04:23;;;;;;;;;;;16.50;99.90;;;;;;5029441;28;19956;-75
2023/05/16 06:06:50;;;;;;;;;;;16.60;99.90;;;;;;5019122;28;19912;-75
2023/05/16 06:09:20;;;;;;;;;;;16.80;99.90;;;;;;5018754;28;19939;-75
2023/05/16 06:11:52;;;;;;;;;;;16.70;99.90;;;;;;5014570;28;20391;-75
2023/05/16 06:14:18;;;;;;;;;;;16.80;99.90;;;;;;5009592;28;19955;-75
2023/05/16 06:16:46;;;;;;;;;;;16.80;99.90;;;;;;5025430;28;19933;-75
2023/05/16 06:19:15;;;;;;;;;;;16.70;99.90;;;;;;5010524;28;19912;-75
2023/05/16 06:21:41;;;;;;;;;;;16.70;99.90;;;;;;5015144;28;19905;-75
2023/05/16 06:24:08;;;;;;;;;;;16.60;99.90;;;;;;5030367;28;20000;-74
2023/05/16 06:26:48;;;;;;;;;;;16.60;99.90;;;;;;5017911;28;19909;-74
2023/05/16 06:29:33;;;;;;;;;;;16.50;99.90;;;;;;5013751;28;19909;-75
2023/05/16 06:31:58;;;;;;;;;;;16.40;99.90;;;;;;5017605;28;19999;-75
2023/05/16 06:34:27;;;;;;;;;;;16.30;99.90;;;;;;5016262;28;19905;-75
2023/05/16 06:36:54;;;;;;;;;;;16.40;99.90;;;;;;5031163;28;19909;-75
2023/05/16 06:39:21;;;;;;;;;;;16.40;99.90;;;;;;5019576;28;19905;-75
2023/05/16 06:41:48;;;;;;;;;;;16.30;99.90;;;;;;5017586;28;19972;-75
2023/05/16 06:44:16;;;;;;;;;;;16.40;99.90;;;;;;5016868;28;20305;-75
2023/05/16 06:46:43;;;;;;;;;;;16.40;99.90;;;;;;5018363;28;19956;-76
2023/05/16 06:49:10;;;;;;;;;;;16.30;99.90;;;;;;5006656;28;19995;-75
2023/05/16 06:51:42;;;;;;;;;;;16.10;99.90;;;;;;5014412;28;19913;-75
2023/05/16 06:54:08;;;;;;;;;;;16.10;99.90;;;;;;5030420;28;19909;-75
2023/05/16 06:56:36;;;;;;;;;;;16.10;99.90;;;;;;5017751;28;19936;-74
2023/05/16 06:59:03;;;;;;;;;;;16.30;99.90;;;;;;5017567;28;19909;-75
2023/05/16 07:01:29;;;;;;;;;;;16.50;99.90;;;;;;5020789;28;20409;-75
2023/05/16 07:04:02;;;;;;;;;;;16.50;99.90;;;;;;5016495;28;19905;-75
2023/05/16 07:06:30;;;;;;;;;;;16.50;99.90;;;;;;5013365;28;19913;-74
2023/05/16 07:08:55;;;;;;;;;;;16.30;99.90;;;;;;5016363;28;20623;-75
2023/05/16 07:11:22;;;;;;;;;;;16.30;99.90;;;;;;5014972;28;19909;-75
2023/05/16 07:13:49;;;;;;;;;;;16.50;99.90;;;;;;5017139;28;19913;-75
2023/05/16 07:16:15;;;;;;;;;;;16.60;99.90;;;;;;5010480;28;19953;-75
2023/05/16 07:18:42;;;;;;;;;;;16.60;99.90;;;;;;5015473;28;19982;-75
2023/05/16 07:21:07;;;;;;;;;;;16.60;99.90;;;;;;5017913;28;20536;-76
2023/05/16 07:23:34;;;;;;;;;;;16.50;99.90;;;;;;5015738;28;19909;-75
2023/05/16 07:26:01;;;;;;;;;;;16.50;99.90;;;;;;5015699;28;19957;-75
2023/05/16 07:28:29;;;;;;;;;;;16.50;99.90;;;;;;5017804;28;19959;-75
2023/05/16 07:30:59;;;;;;;;;;;16.40;99.90;;;;;;5012783;28;19913;-75
2023/05/16 07:33:26;;;;;;;;;;;16.30;99.90;;;;;;5023731;28;20381;-76
2023/05/16 07:35:53;;;;;;;;;;;16.20;99.90;;;;;;5004090;28;20576;-75
2023/05/16 07:38:21;;;;;;;;;;;16.30;99.90;;;;;;5021486;28;20266;-75
2023/05/16 07:40:49;;;;;;;;;;;16.20;99.90;;;;;;5008280;28;20526;-75
2023/05/16 07:43:15;;;;;;;;;;;16.20;99.90;;;;;;5013877;28;20590;-74
2023/05/16 07:45:42;;;;;;;;;;;16.20;99.90;;;;;;5015301;28;19909;-74
2023/05/16 07:48:07;;;;;;;;;;;16.20;99.90;;;;;;5014559;28;19935;-74
2023/05/16 07:50:32;;;;;;;;;;;16.20;99.90;;;;;;5013370;28;19917;-74
2023/05/16 07:52:59;;;;;;;;;;;16.10;99.90;;;;;;5013991;28;20290;-74
2023/05/16 07:55:25;;;;;;;;;;;16.10;99.90;;;;;;5009484;28;19912;-73
2023/05/16 07:57:55;;;;;;;;;;;16.00;99.90;;;;;;5014956;28;19905;-77
2023/05/16 08:00:24;;;;;;;;;;;16.00;99.90;;;;;;5014611;28;19905;-76
2023/05/16 08:02:54;;;;;;;;;;;15.90;99.90;;;;;;5014491;28;20005;-75
2023/05/16 08:05:20;;;;;;;;;;;15.90;99.90;;;;;;5018206;28;20354;-76
2023/05/16 08:07:46;;;;;;;;;;;15.80;99.90;;;;;;5021032;28;20047;-76
2023/05/16 08:10:16;;;;;;;;;;;15.80;99.90;;;;;;5025063;28;19997;-76
2023/05/16 08:12:41;;;;;;;;;;;15.80;99.90;;;;;;5015782;28;20347;-76
2023/05/16 08:15:08;;;;;;;;;;;15.70;99.90;;;;;;5018729;28;19912;-75
2023/05/16 08:17:34;;;;;;;;;;;15.70;99.90;;;;;;5017111;28;19935;-76
2023/05/16 08:20:00;;;;;;;;;;;15.60;99.90;;;;;;5018615;28;19912;-76
2023/05/16 08:22:26;;;;;;;;;;;15.50;99.90;;;;;;5017706;28;19928;-76
2023/05/16 08:24:56;;;;;;;;;;;15.30;99.90;;;;;;5012165;28;20366;-75
2023/05/16 08:27:22;;;;;;;;;;;15.10;99.90;;;;;;5017614;28;19905;-75
2023/05/16 08:29:48;;;;;;;;;;;14.80;99.90;;;;;;5015293;28;20847;-76
2023/05/16 08:32:15;;;;;;;;;;;14.50;99.90;;;;;;5016256;28;19943;-76
2023/05/16 08:34:41;;;;;;;;;;;14.30;99.90;;;;;;5015137;28;19906;-76
2023/05/16 08:37:11;;;;;;;;;;;14.30;99.90;;;;;;5016274;28;19916;-76
2023/05/16 08:39:44;;;;;;;;;;;14.30;99.90;;;;;;5023658;28;19909;-75
2023/05/16 08:42:11;;;;;;;;;;;14.50;99.90;;;;;;5024133;28;19905;-76
2023/05/16 08:44:38;;;;;;;;;;;14.60;99.90;;;;;;5013809;28;19936;-75
2023/05/16 08:52:42;;;;;;;;;;;14.70;99.90;;;;;;5023172;28;19920;-75
2023/05/16 08:55:08;;;;;;;;;;;14.70;99.90;;;;;;5017947;28;20019;-75
2023/05/16 08:57:34;;;;;;;;;;;14.80;99.90;;;;;;5026735;28;20100;-75
2023/05/16 09:00:10;;;;;;;;;;;14.80;99.90;;;;;;5023370;28;19920;-75
2023/05/16 09:02:40;;;;;;;;;;;14.80;99.90;;;;;;5008870;28;19915;-75
2023/05/16 09:05:08;;;;;;;;;;;14.80;99.90;;;;;;5026404;28;19915;-76
2023/05/16 09:07:34;;;;;;;;;;;14.80;99.90;;;;;;5029525;28;19905;-75
2023/05/16 09:10:01;;;;;;;;;;;14.80;99.90;;;;;;5024909;28;19913;-75
2023/05/16 09:12:27;;;;;;;;;;;14.80;99.90;;;;;;5018707;28;19975;-75
2023/05/16 09:14:54;;;;;;;;;;;14.80;99.90;;;;;;5024333;28;19919;-75
2023/05/16 09:17:21;;;;;;;;;;;14.90;99.90;;;;;;5027962;28;20040;-75
2023/05/16 09:19:51;;;;;;;;;;;14.90;99.90;;;;;;5029357;28;19940;-76
2023/05/16 09:22:18;;;;;;;;;;;14.90;99.90;;;;;;5026361;28;19913;-76
2023/05/16 09:24:44;;;;;;;;;;;14.90;99.90;;;;;;5012882;28;20363;-75
2023/05/16 09:27:13;;;;;;;;;;;14.90;99.90;;;;;;5027478;28;19909;-75
2023/05/16 09:29:42;;;;;;;;;;;14.80;99.90;;;;;;5030069;28;19916;-75
2023/05/16 09:32:15;;;;;;;;;;;14.80;99.90;;;;;;5026457;28;20393;-75
2023/05/16 09:34:48;;;;;;;;;;;14.80;99.90;;;;;;5023025;28;19915;-75
2023/05/16 09:37:16;;;;;;;;;;;14.70;99.90;;;;;;5012143;28;19909;-76
2023/05/16 09:39:49;;;;;;;;;;;14.80;99.90;;;;;;5026818;28;20270;-76
2023/05/16 09:42:16;;;;;;;;;;;14.70;99.90;;;;;;5009802;28;20011;-75
2023/05/16 09:44:55;;;;;;;;;;;14.70;99.90;;;;;;5030546;28;19940;-75
2023/05/16 09:47:26;;;;;;;;;;;14.60;99.90;;;;;;5001368;28;20021;-75
2023/05/16 09:49:53;;;;;;;;;;;14.60;99.90;;;;;;5026728;28;19917;-75
2023/05/16 09:52:20;;;;;;;;;;;14.60;99.90;;;;;;5008385;28;19917;-75
2023/05/16 09:54:47;;;;;;;;;;;14.70;99.90;;;;;;5028858;28;19913;-76
2023/05/16 09:57:16;;;;;;;;;;;14.80;99.90;;;;;;5031102;28;19915;-75
2023/05/16 09:59:44;;;;;;;;;;;14.80;99.90;;;;;;5025713;28;19919;-75
2023/05/16 10:02:09;;;;;;;;;;;14.70;99.90;;;;;;5025821;28;20427;-74
2023/05/16 10:04:38;;;;;;;;;;;14.60;99.90;;;;;;5026317;28;19992;-75
2023/05/16 10:07:05;;;;;;;;;;;14.60;99.90;;;;;;5013835;28;20171;-75
2023/05/16 10:09:32;;;;;;;;;;;14.60;99.90;;;;;;5028798;28;19913;-75
2023/05/16 10:12:03;;;;;;;;;;;14.50;99.90;;;;;;5008280;28;20106;-75
2023/05/16 10:14:36;;;;;;;;;;;14.50;99.90;;;;;;5028819;28;19913;-75
2023/05/16 10:17:05;;;;;;;;;;;14.40;99.90;;;;;;5023776;28;20366;-75
2023/05/16 10:19:34;;;;;;;;;;;14.30;99.90;;;;;;5016061;28;19911;-75
2023/05/16 10:22:03;;;;;;;;;;;14.30;99.90;;;;;;5027468;28;19913;-76
2023/05/16 10:24:37;;;;;;;;;;;14.40;99.90;;;;;;5007528;28;19917;-75
2023/05/16 10:27:02;;;;;;;;;;;14.40;99.90;;;;;;5025275;28;20143;-76
2023/05/16 10:29:29;;;;;;;;;;;14.30;99.90;;;;;;5024746;28;19905;-76
2023/05/16 10:31:57;;;;;;;;;;;14.40;99.90;;;;;;5007320;28;19920;-76
2023/05/16 10:34:25;;;;;;;;;;;14.40;99.90;;;;;;5002191;28;20050;-75
2023/05/16 10:36:53;;;;;;;;;;;14.50;99.90;;;;;;5022521;28;19974;-75
2023/05/16 10:39:20;;;;;;;;;;;14.50;99.90;;;;;;5029027;28;19955;-75
2023/05/16 10:41:47;;;;;;;;;;;14.50;99.90;;;;;;5030455;28;20007;-76
2023/05/16 10:44:16;;;;;;;;;;;14.50;99.90;;;;;;5004875;28;19905;-75
2023/05/16 10:46:43;;;;;;;;;;;14.50;99.90;;;;;;5030128;28;19905;-75
2023/05/16 10:49:18;;;;;;;;;;;14.50;99.90;;;;;;5028614;28;19917;-75
2023/05/16 10:51:44;;;;;;;;;;;14.50;99.90;;;;;;4999514;28;20725;-75
2023/05/16 10:54:11;;;;;;;;;;;14.50;99.90;;;;;;5025955;28;19905;-75
2023/05/16 10:56:38;;;;;;;;;;;14.60;99.90;;;;;;5027224;28;19936;-75
2023/05/16 10:59:27;;;;;;;;;;;14.70;99.90;;;;;;5029267;28;20342;-75
2023/05/16 11:01:55;;;;;;;;;;;14.80;99.90;;;;;;5007147;28;19909;-76
2023/05/16 11:04:20;;;;;;;;;;;15.00;99.90;;;;;;5019959;28;19905;-75
2023/05/16 11:06:52;;;;;;;;;;;15.10;99.90;;;;;;5026836;28;19919;-75
2023/05/16 11:09:24;;;;;;;;;;;15.20;99.90;;;;;;5027249;28;19909;-76
2023/05/16 11:11:52;;;;;;;;;;;15.20;99.90;;;;;;5025088;28;19909;-75
2023/05/16 11:14:24;;;;;;;;;;;15.30;99.90;;;;;;5027766;28;20335;-75
2023/05/16 11:16:59;;;;;;;;;;;15.30;99.90;;;;;;5021675;28;19975;-76
2023/05/16 11:19:34;;;;;;;;;;;15.20;99.90;;;;;;5027473;28;20724;-75
2023/05/16 11:22:18;;;;;;;;;;;15.30;99.90;;;;;;5025502;28;19913;-76
2023/05/16 11:24:55;;;;;;;;;;;15.40;99.90;;;;;;5026807;28;20253;-75
2023/05/16 11:27:29;;;;;;;;;;;15.40;99.90;;;;;;5022298;28;19905;-75
2023/05/16 11:29:58;;;;;;;;;;;15.40;99.90;;;;;;5024862;28;19936;-76
2023/05/16 11:32:24;;;;;;;;;;;15.30;99.90;;;;;;5027090;28;19909;-75
2023/05/16 11:34:51;;;;;;;;;;;15.20;99.90;;;;;;5026443;28;20050;-76
2023/05/16 11:37:18;;;;;;;;;;;15.30;99.90;;;;;;5008580;28;20666;-75
2023/05/16 11:39:44;;;;;;;;;;;15.40;99.90;;;;;;5029295;28;19912;-75
2023/05/16 11:42:12;;;;;;;;;;;15.40;99.90;;;;;;5032807;28;19905;-75
2023/05/16 11:44:38;;;;;;;;;;;15.50;99.90;;;;;;5006292;28;19998;-75
2023/05/16 11:47:04;;;;;;;;;;;15.40;99.90;;;;;;5025621;28;19905;-75
2023/05/16 11:49:30;;;;;;;;;;;15.40;99.90;;;;;;5007775;28;20650;-73
2023/05/16 11:51:56;;;;;;;;;;;15.40;99.90;;;;;;5006745;28;19912;-73
2023/05/16 11:54:23;;;;;;;;;;;15.40;99.90;;;;;;5026366;28;19978;-75
2023/05/16 11:56:50;;;;;;;;;;;15.40;99.90;;;;;;5008389;28;19928;-75
2023/05/16 11:59:16;;;;;;;;;;;15.40;99.90;;;;;;5008854;28;19913;-75
2023/05/16 12:01:42;;;;;;;;;;;15.40;99.90;;;;;;5024545;28;19912;-75
2023/05/16 12:04:08;;;;;;;;;;;15.40;99.90;;;;;;5027504;28;19908;-75
2023/05/16 12:06:36;;;;;;;;;;;15.40;99.90;;;;;;5026611;28;19915;-75
2023/05/16 12:09:09;;;;;;;;;;;15.30;99.90;;;;;;5011926;28;19905;-75
2023/05/16 12:11:36;;;;;;;;;;;15.10;99.90;;;;;;5007946;28;19912;-75
2023/05/16 12:14:03;;;;;;;;;;;15.10;99.90;;;;;;5006115;28;20031;-75
2023/05/16 12:16:30;;;;;;;;;;;15.20;99.90;;;;;;4999934;28;20378;-75
2023/05/16 12:18:56;;;;;;;;;;;15.10;99.90;;;;;;5021651;28;20035;-75
2023/05/16 12:21:22;;;;;;;;;;;15.20;99.90;;;;;;5021509;28;19996;-75
2023/05/16 12:23:49;;;;;;;;;;;15.40;99.90;;;;;;5003167;28;19909;-75
2023/05/16 12:26:22;;;;;;;;;;;15.60;99.90;;;;;;5008852;28;19920;-75
2023/05/16 12:28:52;;;;;;;;;;;15.80;99.90;;;;;;5026384;28;19911;-75
2023/05/16 12:31:20;;;;;;;;;;;15.90;99.90;;;;;;5026411;28;19909;-75
2023/05/16 12:33:46;;;;;;;;;;;15.80;99.90;;;;;;5018503;28;20051;-74
2023/05/16 12:36:14;;;;;;;;;;;15.90;99.90;;;;;;5026029;28;20011;-75
2023/05/16 12:38:45;;;;;;;;;;;16.00;99.90;;;;;;5005421;28;19999;-75
2023/05/16 12:41:21;;;;;;;;;;;16.10;99.90;;;;;;5002540;28;19905;-75
2023/05/16 12:43:47;;;;;;;;;;;16.10;99.90;;;;;;5003065;28;19922;-76
2023/05/16 12:46:13;;;;;;;;;;;16.30;99.90;;;;;;5027372;28;19916;-75
2023/05/16 12:48:40;;;;;;;;;;;16.30;99.90;;;;;;5030037;28;19908;-75
2023/05/16 12:51:16;;;;;;;;;;;16.30;99.90;;;;;;5027170;28;19909;-75
2023/05/16 12:53:48;;;;;;;;;;;16.40;99.90;;;;;;5021660;28;19904;-75
2023/05/16 12:56:16;;;;;;;;;;;16.40;99.90;;;;;;5004373;28;20011;-75
2023/05/16 12:58:44;;;;;;;;;;;16.40;99.90;;;;;;5023327;28;19951;-74
2023/05/16 13:01:10;;;;;;;;;;;16.30;99.90;;;;;;5027202;28;19904;-75
2023/05/16 13:03:36;;;;;;;;;;;16.20;99.90;;;;;;5022495;28;19916;-75
2023/05/16 13:06:03;;;;;;;;;;;16.20;99.90;;;;;;5014804;28;19920;-75
2023/05/16 13:08:30;;;;;;;;;;;15.90;99.90;;;;;;5026558;28;19913;-75
2023/05/16 13:10:55;;;;;;;;;;;15.60;99.90;;;;;;5027224;28;19909;-75
2023/05/16 13:13:22;;;;;;;;;;;15.00;99.90;;;;;;5007404;28;19936;-75
2023/05/16 13:15:51;;;;;;;;;;;14.60;99.90;;;;;;5024772;28;19990;-75
2023/05/16 13:18:17;;;;;;;;;;;14.50;99.90;;;;;;5021365;28;20589;-75
2023/05/16 13:20:43;;;;;;;;;;;14.10;99.90;;;;;;5023016;28;19920;-75
2023/05/16 13:23:13;;;;;;;;;;;14.30;99.90;;;;;;5030184;28;19912;-75
2023/05/16 13:25:39;;;;;;;;;;;14.50;99.90;;;;;;5023921;28;19912;-76
2023/05/16 13:28:06;;;;;;;;;;;14.80;99.90;;;;;;5027506;28;19905;-76
2023/05/16 13:30:37;;;;;;;;;;;15.10;99.90;;;;;;5028605;28;19911;-75
2023/05/16 13:33:03;;;;;;;;;;;15.20;99.90;;;;;;5029672;28;19916;-75
2023/05/16 13:35:29;;;;;;;;;;;15.30;99.90;;;;;;5019041;28;19990;-76
2023/05/16 13:37:55;;;;;;;;;;;15.40;99.90;;;;;;5025634;28;19909;-75
2023/05/16 13:40:21;;;;;;;;;;;15.40;99.90;;;;;;5030507;28;19905;-76
2023/05/16 13:42:48;;;;;;;;;;;15.40;99.90;;;;;;5002899;28;19913;-75
2023/05/16 13:45:15;;;;;;;;;;;15.40;99.90;;;;;;5028786;28;19942;-76
2023/05/16 13:47:41;;;;;;;;;;;15.20;99.90;;;;;;5009343;28;20354;-76
2023/05/16 13:50:09;;;;;;;;;;;15.10;99.90;;;;;;5024643;28;19917;-75
2023/05/16 13:52:35;;;;;;;;;;;15.10;99.90;;;;;;5008379;28;19913;-76
2023/05/16 13:55:03;;;;;;;;;;;15.00;99.90;;;;;;5007334;28;19905;-76
2023/05/16 13:57:31;;;;;;;;;;;14.90;99.90;;;;;;5025221;28;20325;-76
2023/05/16 13:59:57;;;;;;;;;;;14.90;99.90;;;;;;5026849;28;20325;-75
2023/05/16 14:02:25;;;;;;;;;;;14.80;99.90;;;;;;5025710;28;19909;-76
2023/05/16 14:04:53;;;;;;;;;;;14.80;99.90;;;;;;5025989;28;19905;-76
2023/05/16 14:07:22;;;;;;;;;;;14.90;99.90;;;;;;5025873;28;19916;-76
2023/05/16 14:09:50;;;;;;;;;;;14.90;99.90;;;;;;5028872;28;19964;-76
2023/05/16 14:12:18;;;;;;;;;;;14.90;99.90;;;;;;5029976;28;20002;-76
2023/05/16 14:14:46;;;;;;;;;;;15.00;99.90;;;;;;5028122;28;19908;-75
2023/05/16 14:17:11;;;;;;;;;;;15.00;99.90;;;;;;5031020;28;19912;-75
2023/05/16 14:19:37;;;;;;;;;;;14.90;99.90;;;;;;5029091;28;19905;-75
2023/05/16 14:22:03;;;;;;;;;;;15.00;99.90;;;;;;5027691;28;19966;-76
2023/05/16 14:24:30;;;;;;;;;;;15.00;99.90;;;;;;5024053;28;19917;-75
2023/05/16 14:26:55;;;;;;;;;;;14.90;99.90;;;;;;5029708;28;20000;-75
2023/05/16 14:29:23;;;;;;;;;;;15.00;99.90;;;;;;5023269;28;19989;-76